createdAt,value
2023-02-27T00:00:09.042Z,74.97
2023-02-27T00:01:09.035Z,71.29
2023-02-27T00:02:09.040Z,68.95
2023-02-27T00:03:09.043Z,67.67
2023-02-27T00:04:09.083Z,66.02
2023-02-27T00:05:08.693Z,64.80
2023-02-27T00:06:08.806Z,63.05
2023-02-27T00:07:09.014Z,62.07
2023-02-27T00:08:09.049Z,61.12
2023-02-27T00:09:09.147Z,60.12
2023-02-27T00:10:08.711Z,58.61
2023-02-27T00:11:09.033Z,56.56
2023-02-27T00:12:09.054Z,54.65
2023-02-27T00:13:09.033Z,53.47
2023-02-27T00:14:09.046Z,52.01
2023-02-27T00:15:09.052Z,51.22
2023-02-27T00:16:10.759Z,50.15
2023-02-27T00:17:09.036Z,49.82
2023-02-27T00:18:08.559Z,49.24
2023-02-27T00:19:08.967Z,48.25
2023-02-27T00:20:08.916Z,47.73
2023-02-27T00:21:08.506Z,46.90
2023-02-27T00:22:08.790Z,46.28
2023-02-27T00:23:09.050Z,45.09
2023-02-27T00:24:09.054Z,44.33
2023-02-27T00:25:08.461Z,43.78
2023-02-27T00:26:09.073Z,43.33
2023-02-27T00:27:09.056Z,42.33
2023-02-27T00:28:09.066Z,41.74
2023-02-27T00:29:09.057Z,41.45
2023-02-27T00:30:09.061Z,41.33
2023-02-27T00:31:09.105Z,41.29
2023-02-27T00:32:08.787Z,41.53
2023-02-27T00:33:08.374Z,41.41
2023-02-27T00:34:08.403Z,41.37
2023-02-27T00:35:08.429Z,41.41
2023-02-27T00:36:08.467Z,41.49
2023-02-27T00:37:08.325Z,41.82
2023-02-27T00:38:08.522Z,41.57
2023-02-27T00:39:08.542Z,41.82
2023-02-27T00:40:08.305Z,41.70
2023-02-27T00:41:08.620Z,41.82
2023-02-27T00:42:08.290Z,41.82
2023-02-27T00:43:08.265Z,41.74
2023-02-27T00:44:08.725Z,41.74
2023-02-27T00:45:08.736Z,41.45
2023-02-27T00:46:08.783Z,41.62
2023-02-27T00:47:08.619Z,41.57
2023-02-27T00:48:08.404Z,41.74
2023-02-27T00:49:08.179Z,41.82
2023-02-27T00:50:08.314Z,41.70
2023-02-27T00:51:08.928Z,42.03
2023-02-27T00:52:08.963Z,41.95
2023-02-27T00:53:08.801Z,42.07
2023-02-27T00:54:09.051Z,42.80
2023-02-27T00:55:08.301Z,42.97
2023-02-27T00:56:08.122Z,43.20
2023-02-27T00:57:08.094Z,43.15
2023-02-27T00:58:08.104Z,43.55
2023-02-27T00:59:08.079Z,43.83
2023-02-27T01:00:08.073Z,44.19
2023-02-27T01:01:08.088Z,44.33
2023-02-27T01:02:08.084Z,44.62
2023-02-27T01:03:08.073Z,44.62
2023-02-27T01:04:08.053Z,44.81
2023-02-27T01:05:08.021Z,45.39
2023-02-27T01:06:09.080Z,46.13
2023-02-27T01:07:08.080Z,46.54
2023-02-27T01:08:08.084Z,46.64
2023-02-27T01:09:07.983Z,47.17
2023-02-27T01:10:08.861Z,48.22
2023-02-27T01:11:08.086Z,48.72
2023-02-27T01:12:09.101Z,49.15
2023-02-27T01:13:09.892Z,49.59
2023-02-27T01:14:07.944Z,50.09
2023-02-27T01:15:08.097Z,50.94
2023-02-27T01:16:08.149Z,51.06
2023-02-27T01:17:08.087Z,51.72
2023-02-27T01:18:09.099Z,51.88
2023-02-27T01:19:08.100Z,52.24
2023-02-27T01:20:07.899Z,52.63
2023-02-27T01:21:07.851Z,53.03
2023-02-27T01:22:07.826Z,53.50
2023-02-27T01:23:07.794Z,53.71
2023-02-27T01:24:07.969Z,54.02
2023-02-27T01:25:07.793Z,54.33
2023-02-27T01:26:08.033Z,54.54
2023-02-27T01:27:08.036Z,54.15
2023-02-27T01:28:08.096Z,54.44
2023-02-27T01:29:07.735Z,54.51
2023-02-27T01:30:07.909Z,54.19
2023-02-27T01:31:08.106Z,54.33
2023-02-27T01:32:07.768Z,54.58
2023-02-27T01:33:07.685Z,55.33
2023-02-27T01:34:08.111Z,55.99
2023-02-27T01:35:07.943Z,56.33
2023-02-27T01:36:08.129Z,56.33
2023-02-27T01:37:07.648Z,56.90
2023-02-27T01:38:07.652Z,56.90
2023-02-27T01:39:08.112Z,57.06
2023-02-27T01:40:08.116Z,56.75
2023-02-27T01:41:07.600Z,56.67
2023-02-27T01:42:07.996Z,55.62
2023-02-27T01:43:08.109Z,54.76
2023-02-27T01:44:07.578Z,54.26
2023-02-27T01:45:07.549Z,53.16
2023-02-27T01:46:07.594Z,52.66
2023-02-27T01:47:07.530Z,51.79
2023-02-27T01:48:07.535Z,51.25
2023-02-27T01:49:07.502Z,50.60
2023-02-27T01:50:08.120Z,50.12
2023-02-27T01:51:08.115Z,49.85
2023-02-27T01:52:08.129Z,49.38
2023-02-27T01:53:07.454Z,48.98
2023-02-27T01:54:07.906Z,48.92
2023-02-27T01:55:08.120Z,48.81
2023-02-27T01:56:07.455Z,48.36
2023-02-27T01:57:07.411Z,47.84
2023-02-27T01:58:08.159Z,47.70
2023-02-27T01:59:08.123Z,47.84
2023-02-27T02:00:07.398Z,47.95
2023-02-27T02:01:07.477Z,47.81
2023-02-27T02:02:08.167Z,47.59
2023-02-27T02:03:08.128Z,47.65
2023-02-27T02:04:08.129Z,47.35
2023-02-27T02:05:07.328Z,47.01
2023-02-27T02:06:07.967Z,46.44
2023-02-27T02:07:07.300Z,46.18
2023-02-27T02:08:07.353Z,45.68
2023-02-27T02:09:07.258Z,45.39
2023-02-27T02:10:07.415Z,44.62
2023-02-27T02:11:07.441Z,44.71
2023-02-27T02:12:07.253Z,44.52
2023-02-27T02:13:07.214Z,44.15
2023-02-27T02:14:07.542Z,43.96
2023-02-27T02:15:07.574Z,43.64
2023-02-27T02:16:07.602Z,43.83
2023-02-27T02:17:07.188Z,43.83
2023-02-27T02:18:07.179Z,43.96
2023-02-27T02:19:07.169Z,44.10
2023-02-27T02:20:07.147Z,44.43
2023-02-27T02:21:07.125Z,44.71
2023-02-27T02:22:07.158Z,44.95
2023-02-27T02:23:07.139Z,45.09
2023-02-27T02:24:07.109Z,45.19
2023-02-27T02:25:07.090Z,45.29
2023-02-27T02:26:07.090Z,45.39
2023-02-27T02:27:07.145Z,45.63
2023-02-27T02:28:07.117Z,45.53
2023-02-27T02:29:07.030Z,45.73
2023-02-27T02:30:07.151Z,45.39
2023-02-27T02:31:07.257Z,45.53
2023-02-27T02:32:07.075Z,45.34
2023-02-27T02:33:06.986Z,45.53
2023-02-27T02:34:07.011Z,45.48
2023-02-27T02:35:07.156Z,45.24
2023-02-27T02:36:06.966Z,45.29
2023-02-27T02:37:06.968Z,45.93
2023-02-27T02:38:07.169Z,45.88
2023-02-27T02:39:06.922Z,46.03
2023-02-27T02:40:06.918Z,45.98
2023-02-27T02:41:06.899Z,46.54
2023-02-27T02:42:06.932Z,46.59
2023-02-27T02:43:06.880Z,47.46
2023-02-27T02:44:07.158Z,47.89
2023-02-27T02:45:06.866Z,48.36
2023-02-27T02:46:07.183Z,49.01
2023-02-27T02:47:06.937Z,49.70
2023-02-27T02:48:06.847Z,50.48
2023-02-27T02:49:07.163Z,51.12
2023-02-27T02:50:07.157Z,51.69
2023-02-27T02:51:07.108Z,52.30
2023-02-27T02:52:07.084Z,52.83
2023-02-27T02:53:06.789Z,53.26
2023-02-27T02:54:06.795Z,53.50
2023-02-27T02:55:06.737Z,53.95
2023-02-27T02:56:06.746Z,54.22
2023-02-27T02:57:06.739Z,54.47
2023-02-27T02:58:06.930Z,54.29
2023-02-27T02:59:06.935Z,54.22
2023-02-27T03:00:06.678Z,54.76
2023-02-27T03:01:06.701Z,54.79
2023-02-27T03:02:07.054Z,54.47
2023-02-27T03:03:06.687Z,54.37
2023-02-27T03:04:06.695Z,54.29
2023-02-27T03:05:06.642Z,54.37
2023-02-27T03:06:06.618Z,54.68
2023-02-27T03:07:06.929Z,54.65
2023-02-27T03:08:06.712Z,54.51
2023-02-27T03:09:06.627Z,54.08
2023-02-27T03:10:07.177Z,53.95
2023-02-27T03:11:07.187Z,53.40
2023-02-27T03:12:07.014Z,52.66
2023-02-27T03:13:06.548Z,51.00
2023-02-27T03:14:07.107Z,48.56
2023-02-27T03:15:06.551Z,46.85
2023-02-27T03:16:06.525Z,45.63
2023-02-27T03:17:06.506Z,44.76
2023-02-27T03:18:07.180Z,44.01
2023-02-27T03:19:06.486Z,43.64
2023-02-27T03:20:06.627Z,43.37
2023-02-27T03:21:06.466Z,43.46
2023-02-27T03:22:06.434Z,43.64
2023-02-27T03:23:06.478Z,43.83
2023-02-27T03:24:07.190Z,44.01
2023-02-27T03:25:06.435Z,44.33
2023-02-27T03:26:07.191Z,44.71
2023-02-27T03:27:06.967Z,44.76
2023-02-27T03:28:06.364Z,44.71
2023-02-27T03:29:06.375Z,44.76
2023-02-27T03:30:07.180Z,44.71
2023-02-27T03:31:09.634Z,44.81
2023-02-27T03:32:06.850Z,44.71
2023-02-27T03:33:06.459Z,44.62
2023-02-27T03:34:07.179Z,44.90
2023-02-27T03:35:07.308Z,45.00
2023-02-27T03:36:07.112Z,45.39
2023-02-27T03:37:06.306Z,45.29
2023-02-27T03:38:07.190Z,45.09
2023-02-27T03:39:07.195Z,44.95
2023-02-27T03:40:06.232Z,44.71
2023-02-27T03:41:06.236Z,44.57
2023-02-27T03:42:06.217Z,44.47
2023-02-27T03:43:06.213Z,44.57
2023-02-27T03:44:06.177Z,44.62
2023-02-27T03:45:06.195Z,44.43
2023-02-27T03:46:06.165Z,44.43
2023-02-27T03:47:06.196Z,44.62
2023-02-27T03:48:06.199Z,44.29
2023-02-27T03:49:06.155Z,44.19
2023-02-27T03:50:06.200Z,44.10
2023-02-27T03:51:06.194Z,43.96
2023-02-27T03:52:06.108Z,43.74
2023-02-27T03:53:06.098Z,43.64
2023-02-27T03:54:06.074Z,43.51
2023-02-27T03:55:06.070Z,43.42
2023-02-27T03:56:06.047Z,43.24
2023-02-27T03:57:06.070Z,43.28
2023-02-27T03:58:06.200Z,43.37
2023-02-27T03:59:06.206Z,43.28
2023-02-27T04:00:06.041Z,43.33
2023-02-27T04:01:05.997Z,43.28
2023-02-27T04:02:06.068Z,43.11
2023-02-27T04:03:06.110Z,43.15
2023-02-27T04:04:05.951Z,43.11
2023-02-27T04:05:05.962Z,43.20
2023-02-27T04:06:06.202Z,43.02
2023-02-27T04:07:06.038Z,43.02
2023-02-27T04:08:06.206Z,42.93
2023-02-27T04:09:06.625Z,42.84
2023-02-27T04:10:05.887Z,42.54
2023-02-27T04:11:05.888Z,42.33
2023-02-27T04:12:06.220Z,42.58
2023-02-27T04:13:05.876Z,42.54
2023-02-27T04:14:06.228Z,42.54
2023-02-27T04:15:05.983Z,42.46
2023-02-27T04:16:05.877Z,42.50
2023-02-27T04:17:05.811Z,42.46
2023-02-27T04:18:05.793Z,42.71
2023-02-27T04:19:06.569Z,42.50
2023-02-27T04:20:05.771Z,42.80
2023-02-27T04:21:05.773Z,42.76
2023-02-27T04:22:06.214Z,42.71
2023-02-27T04:23:06.224Z,42.67
2023-02-27T04:24:05.756Z,42.58
2023-02-27T04:25:06.415Z,42.46
2023-02-27T04:26:05.702Z,42.37
2023-02-27T04:27:06.966Z,42.07
2023-02-27T04:28:05.768Z,41.90
2023-02-27T04:29:05.720Z,41.86
2023-02-27T04:30:05.826Z,41.78
2023-02-27T04:31:05.999Z,41.62
2023-02-27T04:32:05.726Z,41.49
2023-02-27T04:33:05.644Z,41.33
2023-02-27T04:34:05.960Z,41.13
2023-02-27T04:35:05.638Z,41.21
2023-02-27T04:36:05.599Z,41.21
2023-02-27T04:37:05.610Z,41.01
2023-02-27T04:38:06.036Z,41.01
2023-02-27T04:39:05.581Z,40.89
2023-02-27T04:40:05.570Z,40.97
2023-02-27T04:41:05.551Z,40.73
2023-02-27T04:42:05.529Z,40.69
2023-02-27T04:43:05.671Z,40.42
2023-02-27T04:44:05.500Z,40.61
2023-02-27T04:45:05.520Z,40.61
2023-02-27T04:46:06.324Z,40.53
2023-02-27T04:47:05.490Z,40.46
2023-02-27T04:48:05.475Z,40.26
2023-02-27T04:49:06.000Z,40.22
2023-02-27T04:50:06.158Z,40.53
2023-02-27T04:51:05.486Z,40.38
2023-02-27T04:52:05.905Z,40.42
2023-02-27T04:53:05.564Z,40.46
2023-02-27T04:54:06.251Z,40.30
2023-02-27T04:55:05.472Z,40.42
2023-02-27T04:56:05.402Z,40.34
2023-02-27T04:57:05.400Z,40.49
2023-02-27T04:58:05.428Z,40.49
2023-02-27T04:59:06.340Z,40.53
2023-02-27T05:00:05.337Z,40.26
2023-02-27T05:01:06.089Z,40.38
2023-02-27T05:02:06.304Z,40.46
2023-02-27T05:03:05.308Z,40.42
2023-02-27T05:04:05.284Z,40.61
2023-02-27T05:05:05.288Z,40.38
2023-02-27T05:06:05.314Z,40.61
2023-02-27T05:07:05.287Z,40.49
2023-02-27T05:08:05.238Z,40.53
2023-02-27T05:09:05.269Z,40.15
2023-02-27T05:10:05.273Z,40.18
2023-02-27T05:11:05.995Z,40.11
2023-02-27T05:12:05.213Z,40.30
2023-02-27T05:13:05.193Z,40.34
2023-02-27T05:14:05.257Z,40.15
2023-02-27T05:15:05.184Z,40.34
2023-02-27T05:16:05.209Z,40.22
2023-02-27T05:17:05.284Z,40.22
2023-02-27T05:18:05.372Z,40.42
2023-02-27T05:19:05.268Z,40.15
2023-02-27T05:20:05.097Z,40.46
2023-02-27T05:21:05.098Z,40.53
2023-02-27T05:22:05.081Z,40.49
2023-02-27T05:23:05.182Z,40.46
2023-02-27T05:24:05.057Z,40.30
2023-02-27T05:25:05.273Z,40.53
2023-02-27T05:26:05.274Z,40.38
2023-02-27T05:27:05.275Z,40.34
2023-02-27T05:28:05.025Z,40.61
2023-02-27T05:29:05.014Z,40.42
2023-02-27T05:30:04.999Z,40.53
2023-02-27T05:31:05.280Z,40.11
2023-02-27T05:32:05.091Z,40.15
2023-02-27T05:33:05.280Z,40.42
2023-02-27T05:34:04.992Z,40.15
2023-02-27T05:35:04.949Z,40.11
2023-02-27T05:36:04.936Z,40.34
2023-02-27T05:37:04.965Z,40.30
2023-02-27T05:38:04.901Z,40.15
2023-02-27T05:39:04.929Z,40.22
2023-02-27T05:40:04.872Z,40.53
2023-02-27T05:41:04.873Z,40.49
2023-02-27T05:42:05.284Z,40.34
2023-02-27T05:43:04.846Z,40.26
2023-02-27T05:44:04.850Z,40.53
2023-02-27T05:45:04.829Z,40.46
2023-02-27T05:46:04.826Z,40.61
2023-02-27T05:47:04.811Z,40.38
2023-02-27T05:48:04.790Z,40.34
2023-02-27T05:49:05.292Z,40.61
2023-02-27T05:50:05.281Z,40.57
2023-02-27T05:51:05.300Z,40.57
2023-02-27T05:52:04.728Z,40.53
2023-02-27T05:53:04.743Z,40.65
2023-02-27T05:54:04.757Z,40.65
2023-02-27T05:55:04.732Z,40.73
2023-02-27T05:56:04.689Z,40.61
2023-02-27T05:57:04.759Z,40.73
2023-02-27T05:58:04.682Z,40.81
2023-02-27T05:59:04.688Z,40.93
2023-02-27T06:00:04.674Z,41.01
2023-02-27T06:01:04.659Z,40.07
2023-02-27T06:02:04.680Z,39.51
2023-02-27T06:03:04.681Z,38.53
2023-02-27T06:04:04.612Z,37.27
2023-02-27T06:05:04.902Z,36.65
2023-02-27T06:06:04.929Z,36.49
2023-02-27T06:07:04.917Z,36.24
2023-02-27T06:08:04.552Z,36.43
2023-02-27T06:09:04.569Z,36.55
2023-02-27T06:10:04.552Z,36.78
2023-02-27T06:11:04.532Z,36.97
2023-02-27T06:12:05.147Z,37.04
2023-02-27T06:13:05.171Z,37.43
2023-02-27T06:14:04.873Z,37.37
2023-02-27T06:15:05.242Z,37.53
2023-02-27T06:16:04.460Z,38.04
2023-02-27T06:17:04.501Z,37.94
2023-02-27T06:18:04.453Z,38.32
2023-02-27T06:19:05.106Z,38.39
2023-02-27T06:20:04.437Z,38.25
2023-02-27T06:21:05.324Z,38.35
2023-02-27T06:22:05.316Z,38.56
2023-02-27T06:23:04.413Z,38.60
2023-02-27T06:24:04.381Z,38.96
2023-02-27T06:25:04.406Z,38.88
2023-02-27T06:26:04.360Z,38.88
2023-02-27T06:27:05.309Z,38.96
2023-02-27T06:28:04.335Z,39.36
2023-02-27T06:29:04.342Z,39.17
2023-02-27T06:30:04.327Z,39.32
2023-02-27T06:31:04.356Z,39.51
2023-02-27T06:32:04.312Z,39.43
2023-02-27T06:33:04.303Z,39.62
2023-02-27T06:34:04.278Z,39.77
2023-02-27T06:35:04.326Z,39.88
2023-02-27T06:36:04.282Z,39.88
2023-02-27T06:37:04.456Z,40.03
2023-02-27T06:38:04.225Z,39.96
2023-02-27T06:39:04.223Z,40.03
2023-02-27T06:40:04.198Z,40.03
2023-02-27T06:41:04.332Z,40.18
2023-02-27T06:42:04.190Z,40.34
2023-02-27T06:43:04.202Z,40.42
2023-02-27T06:44:04.166Z,40.18
2023-02-27T06:45:04.233Z,40.11
2023-02-27T06:46:04.292Z,40.30
2023-02-27T06:47:04.135Z,40.57
2023-02-27T06:48:04.105Z,40.46
2023-02-27T06:49:04.157Z,40.34
2023-02-27T06:50:04.323Z,40.49
2023-02-27T06:51:04.111Z,40.69
2023-02-27T06:52:04.051Z,40.77
2023-02-27T06:53:04.325Z,40.73
2023-02-27T06:54:04.331Z,40.65
2023-02-27T06:55:04.052Z,40.61
2023-02-27T06:56:04.014Z,40.53
2023-02-27T06:57:04.032Z,40.81
2023-02-27T06:58:03.981Z,41.01
2023-02-27T06:59:03.996Z,40.53
2023-02-27T07:00:03.972Z,40.73
2023-02-27T07:01:04.118Z,40.49
2023-02-27T07:02:04.332Z,40.61
2023-02-27T07:03:03.941Z,40.46
2023-02-27T07:04:03.932Z,40.53
2023-02-27T07:05:05.284Z,40.53
2023-02-27T07:06:03.903Z,40.57
2023-02-27T07:07:34.709Z,40.49
2023-02-27T07:08:04.872Z,40.26
2023-02-27T07:09:07.146Z,40.38
2023-02-27T07:10:04.344Z,40.38
2023-02-27T07:11:04.342Z,40.34
2023-02-27T07:12:04.342Z,40.42
2023-02-27T07:13:04.711Z,40.38
2023-02-27T07:14:03.821Z,40.38
2023-02-27T07:15:03.805Z,40.46
2023-02-27T07:16:04.385Z,40.18
2023-02-27T07:17:04.834Z,40.30
2023-02-27T07:18:04.361Z,40.49
2023-02-27T07:19:04.350Z,40.26
2023-02-27T07:20:03.772Z,40.18
2023-02-27T07:21:03.727Z,40.42
2023-02-27T07:22:03.770Z,40.22
2023-02-27T07:23:03.735Z,40.30
2023-02-27T07:24:03.855Z,40.38
2023-02-27T07:25:03.860Z,40.22
2023-02-27T07:26:03.703Z,40.38
2023-02-27T07:27:03.928Z,40.49
2023-02-27T07:28:03.996Z,40.34
2023-02-27T07:29:03.664Z,40.30
2023-02-27T07:30:03.785Z,40.30
2023-02-27T07:31:03.783Z,40.42
2023-02-27T07:32:03.659Z,40.38
2023-02-27T07:33:03.791Z,40.49
2023-02-27T07:34:03.830Z,40.46
2023-02-27T07:35:03.568Z,40.57
2023-02-27T07:36:03.928Z,40.57
2023-02-27T07:37:03.911Z,40.57
2023-02-27T07:38:03.582Z,40.61
2023-02-27T07:39:03.544Z,40.77
2023-02-27T07:40:04.025Z,40.57
2023-02-27T07:41:04.049Z,40.53
2023-02-27T07:42:04.082Z,40.53
2023-02-27T07:43:03.516Z,40.42
2023-02-27T07:44:03.504Z,40.61
2023-02-27T07:45:04.172Z,40.65
2023-02-27T07:46:03.555Z,40.81
2023-02-27T07:47:03.476Z,41.13
2023-02-27T07:48:03.857Z,41.21
2023-02-27T07:49:04.310Z,41.90
2023-02-27T07:50:04.646Z,42.58
2023-02-27T07:51:03.388Z,43.46
2023-02-27T07:52:03.396Z,44.38
2023-02-27T07:53:03.374Z,45.88
2023-02-27T07:54:03.385Z,47.81
2023-02-27T07:55:03.361Z,49.94
2023-02-27T07:56:03.368Z,52.20
2023-02-27T07:57:03.338Z,54.54
2023-02-27T07:58:03.322Z,56.48
2023-02-27T07:59:03.383Z,59.99
2023-02-27T08:00:03.315Z,63.48
2023-02-27T08:01:03.291Z,66.81
2023-02-27T08:02:03.295Z,69.40
2023-02-27T08:03:03.330Z,72.39
2023-02-27T08:04:03.268Z,75.31
2023-02-27T08:05:03.250Z,77.39
2023-02-27T08:06:03.241Z,79.59
2023-02-27T08:07:03.223Z,80.97
2023-02-27T08:08:03.205Z,82.47
2023-02-27T08:09:03.184Z,83.96
2023-02-27T08:10:03.209Z,84.81
2023-02-27T08:11:03.167Z,85.41
2023-02-27T08:12:03.160Z,86.29
2023-02-27T08:13:03.395Z,86.20
2023-02-27T08:14:03.484Z,86.37
2023-02-27T08:15:03.136Z,87.63
2023-02-27T08:16:03.148Z,88.74
2023-02-27T08:17:03.094Z,89.03
2023-02-27T08:18:03.098Z,91.35
2023-02-27T08:19:03.080Z,92.66
2023-02-27T08:20:03.080Z,95.39
2023-02-27T08:21:03.065Z,95.47
2023-02-27T08:22:03.354Z,97.12
2023-02-27T08:23:03.032Z,99.90
2023-02-27T08:24:03.030Z,103.91
2023-02-27T08:25:02.995Z,107.36
2023-02-27T08:26:03.046Z,109.46
2023-02-27T08:27:02.975Z,110.46
2023-02-27T08:28:02.971Z,112.23
2023-02-27T08:29:02.942Z,113.83
2023-02-27T08:30:03.410Z,113.90
2023-02-27T08:31:02.974Z,115.55
2023-02-27T08:32:02.988Z,117.73
2023-02-27T08:33:02.897Z,119.32
2023-02-27T08:34:10.201Z,121.04
2023-02-27T08:35:03.874Z,121.83
2023-02-27T08:36:02.937Z,122.99
2023-02-27T08:37:02.882Z,125.00
2023-02-27T08:38:03.429Z,126.41
2023-02-27T08:39:02.836Z,126.98
2023-02-27T08:40:02.845Z,128.63
2023-02-27T08:41:02.835Z,128.73
2023-02-27T08:42:02.820Z,128.93
2023-02-27T08:43:02.781Z,128.93
2023-02-27T08:44:02.846Z,130.13
2023-02-27T08:45:02.761Z,129.53
2023-02-27T08:46:02.803Z,131.14
2023-02-27T08:47:02.749Z,133.64
2023-02-27T08:48:02.759Z,134.61
2023-02-27T08:49:02.725Z,137.13
2023-02-27T08:50:02.716Z,137.13
2023-02-27T08:51:02.692Z,144.19
2023-02-27T08:52:02.693Z,143.70
2023-02-27T08:53:02.683Z,145.56
2023-02-27T08:54:03.039Z,149.71
2023-02-27T08:55:02.661Z,158.61
2023-02-27T08:56:02.644Z,164.83
2023-02-27T08:57:03.134Z,168.97
2023-02-27T08:58:02.651Z,177.35
2023-02-27T08:59:02.598Z,177.91
2023-02-27T09:00:02.672Z,182.35
2023-02-27T09:01:02.641Z,183.14
2023-02-27T09:02:02.686Z,187.66
2023-02-27T09:03:02.685Z,202.12
2023-02-27T09:04:02.556Z,223.13
2023-02-27T09:05:02.526Z,243.33
2023-02-27T09:06:02.546Z,259.98
2023-02-27T09:07:02.503Z,273.08
2023-02-27T09:08:02.522Z,284.60
2023-02-27T09:09:02.905Z,302.57
2023-02-27T09:10:02.933Z,315.87
2023-02-27T09:11:02.456Z,329.40
2023-02-27T09:12:02.467Z,338.86
2023-02-27T09:13:02.450Z,343.43
2023-02-27T09:14:02.469Z,354.86
2023-02-27T09:15:02.419Z,356.01
2023-02-27T09:16:02.431Z,350.72
2023-02-27T09:17:03.844Z,355.24
2023-02-27T09:18:02.463Z,366.67
2023-02-27T09:19:02.369Z,372.04
2023-02-27T09:20:02.369Z,379.14
2023-02-27T09:21:02.370Z,388.79
2023-02-27T09:22:02.345Z,393.80
2023-02-27T09:23:02.326Z,396.36
2023-02-27T09:24:17.231Z,403.02
2023-02-27T09:25:03.419Z,407.17
2023-02-27T09:26:02.460Z,408.41
2023-02-27T09:27:02.296Z,412.16
2023-02-27T09:28:02.298Z,419.11
2023-02-27T09:29:02.445Z,418.06
2023-02-27T09:30:02.529Z,430.93
2023-02-27T09:31:02.232Z,442.57
2023-02-27T09:32:02.341Z,453.63
2023-02-27T09:33:02.227Z,455.79
2023-02-27T09:34:02.226Z,470.47
2023-02-27T09:35:02.201Z,477.83
2023-02-27T09:36:02.222Z,480.56
2023-02-27T09:37:02.224Z,505.13
2023-02-27T09:38:02.165Z,518.39
2023-02-27T09:39:02.130Z,540.49
2023-02-27T09:40:02.124Z,547.98
2023-02-27T09:41:02.156Z,554.77
2023-02-27T09:42:02.456Z,592.44
2023-02-27T09:43:02.128Z,604.16
2023-02-27T09:44:02.091Z,614.10
2023-02-27T09:45:04.703Z,635.60
2023-02-27T09:46:02.139Z,655.44
2023-02-27T09:47:02.047Z,659.30
2023-02-27T09:48:02.069Z,667.16
2023-02-27T09:49:02.018Z,669.15
2023-02-27T09:50:02.229Z,669.15
2023-02-27T09:51:01.988Z,666.50
2023-02-27T09:52:02.015Z,675.88
2023-02-27T09:53:02.006Z,678.61
2023-02-27T09:54:01.991Z,689.05
2023-02-27T09:55:01.949Z,702.01
2023-02-27T09:56:02.054Z,715.47
2023-02-27T09:57:01.932Z,715.47
2023-02-27T09:58:02.478Z,710.18
2023-02-27T09:59:01.922Z,710.93
2023-02-27T10:00:01.928Z,710.18
2023-02-27T10:01:02.503Z,704.22
2023-02-27T10:02:01.894Z,690.47
2023-02-27T10:03:01.918Z,666.50
2023-02-27T10:04:01.888Z,651.00
2023-02-27T10:05:01.910Z,638.01
2023-02-27T10:06:02.486Z,632.61
2023-02-27T10:07:01.817Z,629.64
2023-02-27T10:08:01.809Z,626.12
2023-02-27T10:09:02.491Z,631.42
2023-02-27T10:10:01.814Z,640.45
2023-02-27T10:11:01.767Z,648.48
2023-02-27T10:12:01.785Z,652.89
2023-02-27T10:13:01.757Z,648.48
2023-02-27T10:14:01.847Z,629.64
2023-02-27T10:15:01.729Z,620.91
2023-02-27T10:16:01.820Z,595.06
2023-02-27T10:17:01.876Z,580.16
2023-02-27T10:18:09.959Z,562.67
2023-02-27T10:19:02.691Z,547.54
2023-02-27T10:20:01.682Z,549.33
2023-02-27T10:21:01.675Z,552.04
2023-02-27T10:22:01.753Z,556.15
2023-02-27T10:23:01.621Z,561.73
2023-02-27T10:24:01.635Z,554.77
2023-02-27T10:25:01.626Z,556.61
2023-02-27T10:26:01.703Z,553.86
2023-02-27T10:27:01.594Z,546.65
2023-02-27T10:28:01.572Z,537.46
2023-02-27T10:29:01.914Z,545.32
2023-02-27T10:30:02.039Z,542.67
2023-02-27T10:31:01.608Z,543.11
2023-02-27T10:32:01.584Z,542.67
2023-02-27T10:33:01.503Z,546.20
2023-02-27T10:34:01.502Z,547.54
2023-02-27T10:35:01.502Z,557.07
2023-02-27T10:36:03.213Z,558.92
2023-02-27T10:37:01.469Z,556.15
2023-02-27T10:38:01.503Z,569.83
2023-02-27T10:39:01.434Z,579.16
2023-02-27T10:40:01.458Z,585.73
2023-02-27T10:41:01.421Z,592.96
2023-02-27T10:42:01.420Z,596.12
2023-02-27T10:43:01.391Z,602.54
2023-02-27T10:44:01.385Z,597.71
2023-02-27T10:45:02.054Z,607.44
2023-02-27T10:46:01.621Z,603.08
2023-02-27T10:47:01.358Z,612.98
2023-02-27T10:48:01.460Z,623.22
2023-02-27T10:49:01.327Z,632.61
2023-02-27T10:50:01.310Z,638.62
2023-02-27T10:51:01.309Z,654.80
2023-02-27T10:52:01.290Z,665.84
2023-02-27T10:53:01.372Z,669.15
2023-02-27T10:54:01.523Z,681.37
2023-02-27T10:55:01.236Z,687.64
2023-02-27T10:56:01.357Z,689.05
2023-02-27T10:57:01.547Z,708.68
2023-02-27T10:58:01.228Z,710.18
2023-02-27T10:59:01.192Z,722.40
2023-02-27T11:00:01.200Z,728.66
2023-02-27T11:01:01.187Z,729.46
2023-02-27T11:02:01.595Z,723.17
2023-02-27T11:03:01.141Z,729.46
2023-02-27T11:04:01.503Z,738.27
2023-02-27T11:05:01.505Z,750.98
2023-02-27T11:06:01.195Z,764.20
2023-02-27T11:07:01.106Z,775.22
2023-02-27T11:08:01.113Z,793.04
2023-02-27T11:09:01.108Z,806.84
2023-02-27T11:10:01.080Z,821.62
2023-02-27T11:11:01.048Z,844.32
2023-02-27T11:12:01.093Z,853.43
2023-02-27T11:13:01.025Z,867.18
2023-02-27T11:14:01.458Z,871.11
2023-02-27T11:15:01.006Z,870.55
2023-02-27T11:16:01.081Z,869.42
2023-02-27T11:17:01.091Z,863.84
2023-02-27T11:18:00.988Z,869.99
2023-02-27T11:19:00.956Z,896.07
2023-02-27T11:20:00.967Z,907.56
2023-02-27T11:21:01.201Z,906.95
2023-02-27T11:22:00.954Z,897.86
2023-02-27T11:23:00.909Z,889.55
2023-02-27T11:24:00.939Z,881.97
2023-02-27T11:25:02.018Z,888.96
2023-02-27T11:26:00.887Z,904.51
2023-02-27T11:27:00.883Z,918.72
2023-02-27T11:28:00.872Z,920.60
2023-02-27T11:29:00.860Z,931.44
2023-02-27T11:30:00.866Z,921.86
2023-02-27T11:31:00.919Z,914.34
2023-02-27T11:32:00.912Z,901.47
2023-02-27T11:33:00.820Z,899.06
2023-02-27T11:34:00.805Z,891.32
2023-02-27T11:35:00.783Z,896.07
2023-02-27T11:36:00.845Z,908.78
2023-02-27T11:37:00.816Z,910.63
2023-02-27T11:38:00.770Z,887.79
2023-02-27T11:39:00.730Z,876.79
2023-02-27T11:40:00.713Z,875.08
2023-02-27T11:41:00.737Z,878.51
2023-02-27T11:42:00.690Z,869.42
2023-02-27T11:43:00.712Z,868.30
2023-02-27T11:44:01.619Z,862.73
2023-02-27T11:45:01.549Z,849.65
2023-02-27T11:46:24.963Z,851.27
2023-02-27T11:47:01.690Z,857.78
2023-02-27T11:48:01.469Z,855.60
2023-02-27T11:49:00.653Z,861.08
2023-02-27T11:50:00.599Z,858.88
2023-02-27T11:51:01.560Z,857.23
2023-02-27T11:52:01.486Z,869.99
2023-02-27T11:53:00.592Z,888.38
2023-02-27T11:54:00.558Z,892.50
2023-02-27T11:55:00.565Z,893.69
2023-02-27T11:56:00.522Z,904.51
2023-02-27T11:57:00.616Z,912.48
2023-02-27T11:58:00.562Z,937.93
2023-02-27T11:59:00.662Z,941.88
2023-02-27T12:00:00.510Z,941.22
2023-02-27T12:01:00.492Z,953.90
2023-02-27T12:02:00.462Z,975.34
2023-02-27T12:03:00.566Z,1000.74
2023-02-27T12:04:00.524Z,1012.80
2023-02-27T12:05:00.674Z,1022.81
2023-02-27T12:06:00.561Z,1034.61
2023-02-27T12:07:00.413Z,1029.86
2023-02-27T12:08:00.748Z,1030.65
2023-02-27T12:09:00.394Z,1029.07
2023-02-27T12:10:00.566Z,1018.94
2023-02-27T12:11:13.040Z,1027.50
2023-02-27T12:12:01.361Z,1025.93
2023-02-27T12:13:00.892Z,991.16
2023-02-27T12:14:01.993Z,995.56
2023-02-27T12:15:00.467Z,1015.09
2023-02-27T12:16:00.638Z,1043.44
2023-02-27T12:17:00.580Z,1077.72
2023-02-27T12:18:01.036Z,1111.57
2023-02-27T12:19:01.023Z,1134.06
2023-02-27T12:20:00.262Z,1156.49
2023-02-27T12:21:01.174Z,1170.58
2023-02-27T12:22:00.570Z,1207.36
2023-02-27T12:23:00.241Z,1208.44
2023-02-27T12:24:00.721Z,1226.07
2023-02-27T12:25:00.599Z,1217.19
2023-02-27T12:26:00.191Z,1248.84
2023-02-27T12:27:00.184Z,1267.67
2023-02-27T12:28:00.155Z,1259.36
2023-02-27T12:29:00.809Z,1265.29
2023-02-27T12:30:00.577Z,1326.43
2023-02-27T12:31:00.137Z,1307.09
2023-02-27T12:32:01.165Z,1317.33
2023-02-27T12:33:00.591Z,1351.76
2023-02-27T12:34:00.136Z,1338.31
2023-02-27T12:35:00.154Z,1339.64
2023-02-27T12:36:00.221Z,1345.00
2023-02-27T12:37:01.304Z,1340.98
2023-02-27T12:38:00.595Z,1323.82
2023-02-27T12:39:00.211Z,1322.52
2023-02-27T12:40:00.957Z,1338.31
2023-02-27T12:41:00.591Z,1325.12
2023-02-27T12:41:59.998Z,1295.76
2023-02-27T12:42:59.984Z,1295.76